This is the latest recevied weather packets stored in our database for station/object ON7XX-13. If no packets are shown the sender has not sent any weather packets the latest 10 day(s).
| Time | Temp. | Humidity | Pressure | Rain* | Wind** | Luminosity | Snow |
|---|---|---|---|---|---|---|---|
| 1777744080 | 23.33° C | 61% | 1013.5 hPa | - | - | - | - |
| 1777743466 | 23.89° C | 60% | 1013.9 hPa | - | - | - | - |
| 1777742851 | 23.89° C | 60% | 1014.3 hPa | - | - | - | - |
| 1777742237 | 24.44° C | 56% | 1014 hPa | - | - | - | - |
| 1777741623 | 25° C | 54% | 1014 hPa | - | - | - | - |
| 1777741008 | 25.56° C | 51% | 1013.9 hPa | - | - | - | - |
| 1777740394 | 25.56° C | 47% | 1013.8 hPa | - | - | - | - |
| 1777739780 | 26.11° C | 44% | 1013.9 hPa | - | - | - | - |
| 1777739166 | 26.11° C | 43% | 1013.9 hPa | - | - | - | - |
| 1777738551 | 26.67° C | 43% | 1014 hPa | - | - | - | - |
| 1777737937 | 27.22° C | 44% | 1014.1 hPa | - | - | - | - |
| 1777737322 | 27.22° C | 45% | 1014.3 hPa | - | - | - | - |
| 1777736708 | 27.22° C | 45% | 1014.5 hPa | - | - | - | - |
| 1777736094 | 27.22° C | 44% | 1014.6 hPa | - | - | - | - |
| 1777735477 | 27.22° C | 44% | 1014.8 hPa | - | - | - | - |
| 1777734862 | 27.78° C | 43% | 1014.9 hPa | - | - | - | - |
| 1777734248 | 27.78° C | 43% | 1015.1 hPa | - | - | - | - |
| 1777733634 | 27.78° C | 43% | 1015.2 hPa | - | - | - | - |
| 1777733020 | 27.78° C | 42% | 1015.3 hPa | - | - | - | - |
| 1777732405 | 27.78° C | 43% | 1015.5 hPa | - | - | - | - |
| 1777731792 | 27.78° C | 42% | 1015.6 hPa | - | - | - | - |
| 1777731177 | 27.78° C | 44% | 1015.7 hPa | - | - | - | - |
| 1777730563 | 27.22° C | 43% | 1016 hPa | - | - | - | - |
| 1777729949 | 27.78° C | 43% | 1016.1 hPa | - | - | - | - |
| 1777729335 | 27.78° C | 42% | 1016.3 hPa | - | - | - | - |
* Rain since midnight (hover to see other rain measurements)
** Current wind speed in m/s (hover to see current wind gust speed)